createdAt,value
2022-11-22T00:00:41.776Z,987.73
2022-11-22T00:01:41.868Z,987.70
2022-11-22T00:02:41.768Z,987.70
2022-11-22T00:03:41.772Z,987.70
2022-11-22T00:04:41.762Z,987.70
2022-11-22T00:05:41.755Z,987.74
2022-11-22T00:06:41.746Z,987.71
2022-11-22T00:07:41.795Z,987.69
2022-11-22T00:08:41.761Z,987.71
2022-11-22T00:09:41.738Z,987.69
2022-11-22T00:10:41.729Z,987.65
2022-11-22T00:11:41.731Z,987.62
2022-11-22T00:12:41.719Z,987.61
2022-11-22T00:13:41.717Z,987.64
2022-11-22T00:14:41.711Z,987.59
2022-11-22T00:15:41.714Z,987.60
2022-11-22T00:16:41.697Z,987.58
2022-11-22T00:17:41.692Z,987.55
2022-11-22T00:18:41.688Z,987.60
2022-11-22T00:19:41.687Z,987.57
2022-11-22T00:20:41.688Z,987.62
2022-11-22T00:21:41.687Z,987.62
2022-11-22T00:22:44.723Z,987.57
2022-11-22T00:23:41.683Z,987.61
2022-11-22T00:24:41.735Z,987.57
2022-11-22T00:25:41.654Z,987.57
2022-11-22T00:26:41.652Z,987.55
2022-11-22T00:27:41.654Z,987.46
2022-11-22T00:28:41.645Z,987.46
2022-11-22T00:29:41.632Z,987.44
2022-11-22T00:30:41.628Z,987.40
2022-11-22T00:31:41.631Z,987.35
2022-11-22T00:32:41.619Z,987.36
2022-11-22T00:33:41.614Z,987.38
2022-11-22T00:34:41.608Z,987.41
2022-11-22T00:35:41.613Z,987.41
2022-11-22T00:36:41.604Z,987.45
2022-11-22T00:37:41.602Z,987.46
2022-11-22T00:38:41.593Z,987.49
2022-11-22T00:39:41.587Z,987.49
2022-11-22T00:40:41.599Z,987.50
2022-11-22T00:41:41.576Z,987.47
2022-11-22T00:42:41.571Z,987.51
2022-11-22T00:43:41.566Z,987.52
2022-11-22T00:44:41.561Z,987.49
2022-11-22T00:45:41.553Z,987.55
2022-11-22T00:46:41.553Z,987.49
2022-11-22T00:47:41.553Z,987.50
2022-11-22T00:48:41.551Z,987.50
2022-11-22T00:49:41.535Z,987.49
2022-11-22T00:50:41.530Z,987.48
2022-11-22T00:51:41.531Z,987.47
2022-11-22T00:52:41.523Z,987.49
2022-11-22T00:53:41.521Z,987.51
2022-11-22T00:54:41.514Z,987.51
2022-11-22T00:55:41.506Z,987.53
2022-11-22T00:56:41.524Z,987.53
2022-11-22T00:57:41.496Z,987.55
2022-11-22T00:58:41.491Z,987.53
2022-11-22T00:59:41.488Z,987.51
2022-11-22T01:00:41.604Z,987.52
2022-11-22T01:01:41.623Z,987.61
2022-11-22T01:02:41.475Z,987.71
2022-11-22T01:03:41.469Z,987.71
2022-11-22T01:04:41.480Z,987.70
2022-11-22T01:05:41.457Z,987.61
2022-11-22T01:06:41.457Z,987.61
2022-11-22T01:07:41.550Z,987.54
2022-11-22T01:08:41.443Z,987.55
2022-11-22T01:09:41.440Z,987.50
2022-11-22T01:10:41.431Z,987.50
2022-11-22T01:11:41.428Z,987.55
2022-11-22T01:12:41.439Z,987.60
2022-11-22T01:13:41.418Z,987.70
2022-11-22T01:14:41.415Z,987.69
2022-11-22T01:15:41.411Z,987.72
2022-11-22T01:16:41.403Z,987.72
2022-11-22T01:17:41.400Z,987.70
2022-11-22T01:18:41.395Z,987.67
2022-11-22T01:19:41.385Z,987.69
2022-11-22T01:20:41.384Z,987.70
2022-11-22T01:21:41.375Z,987.75
2022-11-22T01:22:41.377Z,987.79
2022-11-22T01:23:41.379Z,987.81
2022-11-22T01:24:41.367Z,987.86
2022-11-22T01:25:41.358Z,987.87
2022-11-22T01:26:41.354Z,987.86
2022-11-22T01:27:41.351Z,987.88
2022-11-22T01:28:41.369Z,987.83
2022-11-22T01:29:41.340Z,987.79
2022-11-22T01:30:41.339Z,987.77
2022-11-22T01:31:41.329Z,987.79
2022-11-22T01:32:41.327Z,987.80
2022-11-22T01:33:41.319Z,987.88
2022-11-22T01:34:41.316Z,987.92
2022-11-22T01:35:41.310Z,987.94
2022-11-22T01:36:41.308Z,987.89
2022-11-22T01:37:41.298Z,987.82
2022-11-22T01:38:41.295Z,987.77
2022-11-22T01:39:41.292Z,987.76
2022-11-22T01:40:41.286Z,987.78
2022-11-22T01:41:41.282Z,987.84
2022-11-22T01:42:41.279Z,987.88
2022-11-22T01:43:41.278Z,987.90
2022-11-22T01:44:41.305Z,987.85
2022-11-22T01:45:41.259Z,987.82
2022-11-22T01:46:41.257Z,987.80
2022-11-22T01:47:41.253Z,987.78
2022-11-22T01:48:41.246Z,987.78
2022-11-22T01:49:41.241Z,987.75
2022-11-22T01:50:41.235Z,987.75
2022-11-22T01:51:41.231Z,987.78
2022-11-22T01:52:41.229Z,987.80
2022-11-22T01:53:41.222Z,987.85
2022-11-22T01:54:41.218Z,987.86
2022-11-22T01:55:41.215Z,987.91
2022-11-22T01:56:41.212Z,987.92
2022-11-22T01:57:41.200Z,987.95
2022-11-22T01:58:41.200Z,988.00
2022-11-22T01:59:41.198Z,988.00
2022-11-22T02:00:41.294Z,988.01
2022-11-22T02:01:41.286Z,988.00
2022-11-22T02:02:41.181Z,988.03
2022-11-22T02:03:41.178Z,988.00
2022-11-22T02:04:41.171Z,988.03
2022-11-22T02:05:41.165Z,988.11
2022-11-22T02:06:41.161Z,988.10
2022-11-22T02:07:41.290Z,988.16
2022-11-22T02:08:41.156Z,988.14
2022-11-22T02:09:41.148Z,988.10
2022-11-22T02:10:41.164Z,988.13
2022-11-22T02:11:41.140Z,988.09
2022-11-22T02:12:41.135Z,988.04
2022-11-22T02:13:41.126Z,988.05
2022-11-22T02:14:41.130Z,988.03
2022-11-22T02:15:41.120Z,988.05
2022-11-22T02:16:41.140Z,988.07
2022-11-22T02:17:41.110Z,988.09
2022-11-22T02:18:41.105Z,988.09
2022-11-22T02:19:41.101Z,988.15
2022-11-22T02:20:41.111Z,988.17
2022-11-22T02:21:41.093Z,988.18
2022-11-22T02:22:41.093Z,988.19
2022-11-22T02:23:41.084Z,988.21
2022-11-22T02:24:41.078Z,988.16
2022-11-22T02:25:41.074Z,988.17
2022-11-22T02:26:41.076Z,988.17
2022-11-22T02:27:41.071Z,988.15
2022-11-22T02:28:41.057Z,988.17
2022-11-22T02:29:41.075Z,988.16
2022-11-22T02:30:41.050Z,988.12
2022-11-22T02:31:41.068Z,988.15
2022-11-22T02:32:41.061Z,988.22
2022-11-22T02:33:41.034Z,988.22
2022-11-22T02:34:41.029Z,988.24
2022-11-22T02:35:41.023Z,988.24
2022-11-22T02:36:41.025Z,988.24
2022-11-22T02:37:41.012Z,988.26
2022-11-22T02:38:41.009Z,988.24
2022-11-22T02:39:41.003Z,988.21
2022-11-22T02:40:41.001Z,988.21
2022-11-22T02:41:41.002Z,988.20
2022-11-22T02:42:40.996Z,988.24
2022-11-22T02:43:40.986Z,988.25
2022-11-22T02:44:40.982Z,988.33
2022-11-22T02:45:40.975Z,988.30
2022-11-22T02:46:40.973Z,988.33
2022-11-22T02:47:40.965Z,988.31
2022-11-22T02:48:40.985Z,988.30
2022-11-22T02:49:40.958Z,988.35
2022-11-22T02:50:40.955Z,988.37
2022-11-22T02:51:40.949Z,988.40
2022-11-22T02:52:41.199Z,988.42
2022-11-22T02:53:40.938Z,988.37
2022-11-22T02:54:40.933Z,988.41
2022-11-22T02:55:40.927Z,988.38
2022-11-22T02:56:40.925Z,988.41
2022-11-22T02:57:40.923Z,988.37
2022-11-22T02:58:40.918Z,988.36
2022-11-22T02:59:40.910Z,988.36
2022-11-22T03:00:41.012Z,988.37
2022-11-22T03:01:40.903Z,988.37
2022-11-22T03:02:40.897Z,988.38
2022-11-22T03:03:40.891Z,988.39
2022-11-22T03:04:40.909Z,988.41
2022-11-22T03:05:40.882Z,988.42
2022-11-22T03:06:40.877Z,988.45
2022-11-22T03:07:40.945Z,988.38
2022-11-22T03:08:40.869Z,988.38
2022-11-22T03:09:40.864Z,988.42
2022-11-22T03:10:40.858Z,988.39
2022-11-22T03:11:40.853Z,988.43
2022-11-22T03:12:40.850Z,988.45
2022-11-22T03:13:40.842Z,988.49
2022-11-22T03:14:40.850Z,988.50
2022-11-22T03:15:40.841Z,988.52
2022-11-22T03:16:40.830Z,988.57
2022-11-22T03:17:40.822Z,988.57
2022-11-22T03:18:40.819Z,988.55
2022-11-22T03:19:40.820Z,988.58
2022-11-22T03:20:40.841Z,988.59
2022-11-22T03:21:40.803Z,988.61
2022-11-22T03:22:40.825Z,988.63
2022-11-22T03:23:40.798Z,988.63
2022-11-22T03:24:40.794Z,988.68
2022-11-22T03:25:40.792Z,988.70
2022-11-22T03:26:40.782Z,988.70
2022-11-22T03:27:40.778Z,988.71
2022-11-22T03:28:40.773Z,988.72
2022-11-22T03:29:40.765Z,988.67
2022-11-22T03:30:40.765Z,988.74
2022-11-22T03:31:40.762Z,988.70
2022-11-22T03:32:40.757Z,988.68
2022-11-22T03:33:40.757Z,988.70
2022-11-22T03:34:40.752Z,988.75
2022-11-22T03:35:40.741Z,988.73
2022-11-22T03:36:40.753Z,988.77
2022-11-22T03:37:40.728Z,988.79
2022-11-22T03:38:40.724Z,988.84
2022-11-22T03:39:40.721Z,988.83
2022-11-22T03:40:40.719Z,988.85
2022-11-22T03:41:40.708Z,988.86
2022-11-22T03:42:40.704Z,988.85
2022-11-22T03:43:40.698Z,988.83
2022-11-22T03:44:40.698Z,988.86
2022-11-22T03:45:40.689Z,988.86
2022-11-22T03:46:40.687Z,988.86
2022-11-22T03:47:40.681Z,988.85
2022-11-22T03:48:40.677Z,988.89
2022-11-22T03:49:40.670Z,988.96
2022-11-22T03:50:40.672Z,988.91
2022-11-22T03:51:40.663Z,988.92
2022-11-22T03:52:40.679Z,988.90
2022-11-22T03:53:40.649Z,988.92
2022-11-22T03:54:40.648Z,988.94
2022-11-22T03:55:40.654Z,988.99
2022-11-22T03:56:40.642Z,989.02
2022-11-22T03:57:40.883Z,989.01
2022-11-22T03:58:40.634Z,989.04
2022-11-22T03:59:40.631Z,989.05
2022-11-22T04:00:40.623Z,989.05
2022-11-22T04:01:40.770Z,989.06
2022-11-22T04:02:40.612Z,989.05
2022-11-22T04:03:40.604Z,989.09
2022-11-22T04:04:40.602Z,989.06
2022-11-22T04:05:40.605Z,989.04
2022-11-22T04:06:40.602Z,989.05
2022-11-22T04:07:40.616Z,989.01
2022-11-22T04:08:40.716Z,989.03
2022-11-22T04:09:40.575Z,988.99
2022-11-22T04:10:40.579Z,989.01
2022-11-22T04:11:40.573Z,988.95
2022-11-22T04:12:40.569Z,988.98
2022-11-22T04:13:40.594Z,989.01
2022-11-22T04:14:40.558Z,988.96
2022-11-22T04:15:40.550Z,989.01
2022-11-22T04:16:40.546Z,989.01
2022-11-22T04:17:40.535Z,988.99
2022-11-22T04:18:40.535Z,989.01
2022-11-22T04:19:40.526Z,989.08
2022-11-22T04:20:40.525Z,989.12
2022-11-22T04:21:40.516Z,989.13
2022-11-22T04:22:40.515Z,989.09
2022-11-22T04:23:40.507Z,989.16
2022-11-22T04:24:40.528Z,989.17
2022-11-22T04:25:40.500Z,989.14
2022-11-22T04:26:40.498Z,989.16
2022-11-22T04:27:40.492Z,989.18
2022-11-22T04:29:08.135Z,989.18
2022-11-22T04:29:40.477Z,989.19
2022-11-22T04:30:40.484Z,989.17
2022-11-22T04:31:40.475Z,989.15
2022-11-22T04:32:40.472Z,989.15
2022-11-22T04:33:40.461Z,989.18
2022-11-22T04:34:40.455Z,989.21
2022-11-22T04:35:40.448Z,989.21
2022-11-22T04:36:40.446Z,989.25
2022-11-22T04:37:40.438Z,989.19
2022-11-22T04:38:40.436Z,989.19
2022-11-22T04:39:40.447Z,989.23
2022-11-22T04:40:40.450Z,989.24
2022-11-22T04:41:40.419Z,989.26
2022-11-22T04:42:40.414Z,989.25
2022-11-22T04:43:40.412Z,989.30
2022-11-22T04:44:40.408Z,989.27
2022-11-22T04:45:40.406Z,989.27
2022-11-22T04:46:40.394Z,989.29
2022-11-22T04:47:40.389Z,989.29
2022-11-22T04:48:40.389Z,989.30
2022-11-22T04:49:40.382Z,989.28
2022-11-22T04:50:40.376Z,989.28
2022-11-22T04:51:40.372Z,989.24
2022-11-22T04:52:40.365Z,989.21
2022-11-22T04:53:40.364Z,989.20
2022-11-22T04:54:40.357Z,989.20
2022-11-22T04:55:40.356Z,989.21
2022-11-22T04:56:40.367Z,989.24
2022-11-22T04:57:40.362Z,989.21
2022-11-22T04:58:40.344Z,989.20
2022-11-22T04:59:40.336Z,989.20
2022-11-22T05:00:40.359Z,989.19
2022-11-22T05:01:40.392Z,989.19
2022-11-22T05:02:40.326Z,989.19
2022-11-22T05:03:40.323Z,989.19
2022-11-22T05:04:40.314Z,989.22
2022-11-22T05:05:40.307Z,989.24
2022-11-22T05:06:40.295Z,989.25
2022-11-22T05:07:40.352Z,989.21
2022-11-22T05:08:40.288Z,989.20
2022-11-22T05:09:40.284Z,989.27
2022-11-22T05:10:40.278Z,989.25
2022-11-22T05:11:40.275Z,989.28
2022-11-22T05:12:40.282Z,989.31
2022-11-22T05:13:40.265Z,989.34
2022-11-22T05:14:40.274Z,989.32
2022-11-22T05:15:40.251Z,989.33
2022-11-22T05:16:40.247Z,989.35
2022-11-22T05:17:40.242Z,989.32
2022-11-22T05:18:40.236Z,989.33
2022-11-22T05:19:43.597Z,989.33
2022-11-22T05:20:40.226Z,989.36
2022-11-22T05:21:40.223Z,989.33
2022-11-22T05:22:40.213Z,989.33
2022-11-22T05:23:40.210Z,989.29
2022-11-22T05:24:40.205Z,989.28
2022-11-22T05:25:40.198Z,989.30
2022-11-22T05:26:40.193Z,989.25
2022-11-22T05:27:40.189Z,989.27
2022-11-22T05:28:40.204Z,989.30
2022-11-22T05:29:40.180Z,989.34
2022-11-22T05:30:40.173Z,989.33
2022-11-22T05:31:40.180Z,989.35
2022-11-22T05:32:40.164Z,989.39
2022-11-22T05:33:40.158Z,989.38
2022-11-22T05:34:40.157Z,989.37
2022-11-22T05:35:40.150Z,989.35
2022-11-22T05:36:40.143Z,989.37
2022-11-22T05:37:40.142Z,989.39
2022-11-22T05:38:40.137Z,989.41
2022-11-22T05:39:40.127Z,989.36
2022-11-22T05:40:40.123Z,989.43
2022-11-22T05:41:40.118Z,989.42
2022-11-22T05:42:40.111Z,989.44
2022-11-22T05:43:40.113Z,989.46
2022-11-22T05:44:40.118Z,989.50
2022-11-22T05:45:40.097Z,989.51
2022-11-22T05:46:40.089Z,989.54
2022-11-22T05:47:40.088Z,989.50
2022-11-22T05:48:40.080Z,989.50
2022-11-22T05:49:40.079Z,989.47
2022-11-22T05:50:40.069Z,989.52
2022-11-22T05:51:40.069Z,989.54
2022-11-22T05:52:40.099Z,989.52
2022-11-22T05:53:40.055Z,989.49
2022-11-22T05:54:40.049Z,989.51
2022-11-22T05:55:40.046Z,989.49
2022-11-22T05:56:40.037Z,989.53
2022-11-22T05:57:40.055Z,989.49
2022-11-22T05:58:40.039Z,989.53
2022-11-22T05:59:44.063Z,989.57
2022-11-22T06:00:40.051Z,989.58
2022-11-22T06:01:40.094Z,989.56
2022-11-22T06:02:40.546Z,989.58
2022-11-22T06:03:40.004Z,989.56
2022-11-22T06:04:40.002Z,989.58
2022-11-22T06:05:39.994Z,989.58
2022-11-22T06:06:39.990Z,989.65
2022-11-22T06:07:40.023Z,989.64
2022-11-22T06:08:39.976Z,989.64
2022-11-22T06:09:39.972Z,989.63
2022-11-22T06:10:39.965Z,989.67
2022-11-22T06:11:39.964Z,989.66
2022-11-22T06:12:39.992Z,989.69
2022-11-22T06:13:39.955Z,989.68
2022-11-22T06:14:43.189Z,989.70
2022-11-22T06:15:39.941Z,989.70
2022-11-22T06:16:39.960Z,989.74
2022-11-22T06:17:39.946Z,989.77
2022-11-22T06:18:39.933Z,989.82
2022-11-22T06:19:39.929Z,989.78
2022-11-22T06:20:39.918Z,989.81
2022-11-22T06:21:39.910Z,989.78
2022-11-22T06:22:39.904Z,989.81
2022-11-22T06:23:39.905Z,989.79
2022-11-22T06:24:39.896Z,989.74
2022-11-22T06:25:39.903Z,989.73
2022-11-22T06:26:39.887Z,989.74
2022-11-22T06:27:39.879Z,989.73
2022-11-22T06:28:39.876Z,989.73
2022-11-22T06:29:39.869Z,989.74
2022-11-22T06:30:39.864Z,989.75
2022-11-22T06:31:39.859Z,989.72
2022-11-22T06:32:39.889Z,989.71
2022-11-22T06:33:39.852Z,989.64
2022-11-22T06:34:39.847Z,989.62
2022-11-22T06:35:39.856Z,989.63
2022-11-22T06:36:39.833Z,989.62
2022-11-22T06:37:39.867Z,989.68
2022-11-22T06:38:39.834Z,989.65
2022-11-22T06:39:39.818Z,989.64
2022-11-22T06:40:39.814Z,989.65
2022-11-22T06:41:39.807Z,989.65
2022-11-22T06:42:39.800Z,989.63
2022-11-22T06:43:43.790Z,989.61
2022-11-22T06:44:39.795Z,989.64
2022-11-22T06:45:39.786Z,989.65
2022-11-22T06:46:39.783Z,989.64
2022-11-22T06:47:39.790Z,989.65
2022-11-22T06:48:39.802Z,989.68
2022-11-22T06:49:39.764Z,989.68
2022-11-22T06:50:39.758Z,989.73
2022-11-22T06:51:39.858Z,989.69
2022-11-22T06:52:39.749Z,989.73
2022-11-22T06:53:47.184Z,989.69
2022-11-22T06:54:39.740Z,989.70
2022-11-22T06:56:01.050Z,989.75
2022-11-22T06:56:39.744Z,989.76
2022-11-22T06:57:39.724Z,989.80
2022-11-22T06:58:39.717Z,989.81
2022-11-22T06:59:39.715Z,989.87
2022-11-22T07:00:39.728Z,989.86
2022-11-22T07:01:39.785Z,989.86
2022-11-22T07:02:39.704Z,989.90
2022-11-22T07:03:39.746Z,989.91
2022-11-22T07:04:51.106Z,989.93
2022-11-22T07:05:39.688Z,989.92
2022-11-22T07:06:39.684Z,989.93
2022-11-22T07:07:39.735Z,989.89
2022-11-22T07:08:39.679Z,989.90
2022-11-22T07:09:39.675Z,989.92
2022-11-22T07:10:39.656Z,989.89
2022-11-22T07:11:39.653Z,989.92
2022-11-22T07:12:39.646Z,989.98
2022-11-22T07:13:39.640Z,989.97
2022-11-22T07:14:39.638Z,989.96
2022-11-22T07:15:39.635Z,989.97
2022-11-22T07:16:39.631Z,989.96
2022-11-22T07:17:39.620Z,990.00
2022-11-22T07:18:39.617Z,990.04
2022-11-22T07:19:39.610Z,990.12
2022-11-22T07:20:39.622Z,990.13
2022-11-22T07:21:39.600Z,990.13
2022-11-22T07:22:39.599Z,990.13
2022-11-22T07:23:39.594Z,990.12
2022-11-22T07:24:39.582Z,990.05
2022-11-22T07:25:39.580Z,990.03
2022-11-22T07:26:39.570Z,989.98
2022-11-22T07:27:39.570Z,989.99
2022-11-22T07:28:39.561Z,989.95
2022-11-22T07:29:39.558Z,990.00
2022-11-22T07:30:43.826Z,990.00
2022-11-22T07:31:39.550Z,990.03
2022-11-22T07:32:39.542Z,990.08
2022-11-22T07:33:39.538Z,990.11
2022-11-22T07:34:39.531Z,990.11
2022-11-22T07:35:39.528Z,990.14
2022-11-22T07:36:39.539Z,990.05
2022-11-22T07:37:39.518Z,990.10
2022-11-22T07:38:39.517Z,990.14
2022-11-22T07:39:39.508Z,990.14
2022-11-22T07:40:39.503Z,990.17
2022-11-22T07:41:39.498Z,990.17
2022-11-22T07:42:39.490Z,990.16
2022-11-22T07:43:39.491Z,990.15
2022-11-22T07:44:39.524Z,990.14
2022-11-22T07:45:39.480Z,990.17
2022-11-22T07:46:39.473Z,990.16
2022-11-22T07:47:39.476Z,990.13
2022-11-22T07:48:39.460Z,990.13
2022-11-22T07:49:39.472Z,990.13
2022-11-22T07:50:39.448Z,990.11
2022-11-22T07:51:39.447Z,990.10
2022-11-22T07:52:39.464Z,990.10
2022-11-22T07:53:39.434Z,990.14
2022-11-22T07:54:39.428Z,990.12
2022-11-22T07:55:39.423Z,990.10
2022-11-22T07:56:39.417Z,990.09
2022-11-22T07:57:39.414Z,990.09
2022-11-22T07:58:39.450Z,990.07
2022-11-22T07:59:39.403Z,990.05
2022-11-22T08:00:39.400Z,990.11
2022-11-22T08:01:39.424Z,990.08
2022-11-22T08:02:39.387Z,990.09
2022-11-22T08:03:39.385Z,990.16
2022-11-22T08:04:39.377Z,990.10
2022-11-22T08:05:39.372Z,990.11
2022-11-22T08:06:39.366Z,990.11
2022-11-22T08:07:39.436Z,990.13
2022-11-22T08:08:39.472Z,990.15
2022-11-22T08:09:39.352Z,990.12
2022-11-22T08:10:39.346Z,990.13
2022-11-22T08:11:39.341Z,990.12
2022-11-22T08:12:39.346Z,990.12
2022-11-22T08:13:39.335Z,990.16
2022-11-22T08:14:39.325Z,990.14
2022-11-22T08:15:39.325Z,990.15
2022-11-22T08:16:39.314Z,990.20
2022-11-22T08:17:39.320Z,990.20
2022-11-22T08:18:39.307Z,990.25
2022-11-22T08:19:39.299Z,990.26
2022-11-22T08:20:39.299Z,990.28
2022-11-22T08:21:39.290Z,990.29
2022-11-22T08:22:39.282Z,990.27
2022-11-22T08:23:39.290Z,990.32
2022-11-22T08:24:39.390Z,990.31
2022-11-22T08:25:39.276Z,990.29
2022-11-22T08:26:39.264Z,990.29
2022-11-22T08:27:39.258Z,990.31
2022-11-22T08:28:39.253Z,990.32
2022-11-22T08:29:39.248Z,990.33
2022-11-22T08:30:39.243Z,990.30
2022-11-22T08:31:39.238Z,990.31
2022-11-22T08:32:39.235Z,990.36
2022-11-22T08:33:39.228Z,990.34
2022-11-22T08:34:44.190Z,990.35
2022-11-22T08:35:39.221Z,990.33
2022-11-22T08:36:39.214Z,990.33
2022-11-22T08:37:39.207Z,990.33
2022-11-22T08:38:39.200Z,990.33
2022-11-22T08:39:39.201Z,990.33
2022-11-22T08:40:41.157Z,990.32
2022-11-22T08:41:39.187Z,990.33
2022-11-22T08:42:39.182Z,990.32
2022-11-22T08:43:39.180Z,990.32
2022-11-22T08:44:39.169Z,990.34
2022-11-22T08:45:39.175Z,990.37
2022-11-22T08:46:39.164Z,990.38
2022-11-22T08:47:39.155Z,990.38
2022-11-22T08:48:39.151Z,990.39
2022-11-22T08:49:39.144Z,990.37
2022-11-22T08:50:39.143Z,990.38
2022-11-22T08:51:39.134Z,990.30
2022-11-22T08:52:39.127Z,990.33
2022-11-22T08:53:39.127Z,990.34
2022-11-22T08:54:39.123Z,990.35
2022-11-22T08:55:39.113Z,990.38
2022-11-22T08:56:39.128Z,990.36
2022-11-22T08:57:39.105Z,990.38
2022-11-22T08:58:39.100Z,990.43
2022-11-22T08:59:39.200Z,990.49
2022-11-22T09:00:39.095Z,990.46
2022-11-22T09:01:39.127Z,990.47
2022-11-22T09:02:39.079Z,990.44
2022-11-22T09:03:39.075Z,990.40
2022-11-22T09:04:39.069Z,990.44
2022-11-22T09:08:41.115Z,990.39
2022-11-22T09:09:39.045Z,990.45
2022-11-22T09:10:39.037Z,990.37
2022-11-22T09:11:39.031Z,990.41
2022-11-22T09:12:39.146Z,990.40
2022-11-22T09:13:39.020Z,990.38
2022-11-22T09:14:39.018Z,990.41
2022-11-22T09:15:39.011Z,990.39
2022-11-22T09:16:39.008Z,990.39
2022-11-22T09:17:38.999Z,990.36
2022-11-22T09:18:38.998Z,990.44
2022-11-22T09:19:38.989Z,990.43
2022-11-22T09:20:38.986Z,990.38
2022-11-22T09:21:38.980Z,990.40
2022-11-22T09:22:38.980Z,990.45
2022-11-22T09:23:38.969Z,990.51
2022-11-22T09:24:38.966Z,990.52
2022-11-22T09:25:38.957Z,990.54
2022-11-22T09:26:38.955Z,990.57
2022-11-22T09:27:38.947Z,990.59
2022-11-22T09:28:38.969Z,990.56
2022-11-22T09:29:38.955Z,990.64
2022-11-22T09:30:38.938Z,990.63
2022-11-22T09:31:38.939Z,990.55
2022-11-22T09:32:38.930Z,990.58
2022-11-22T09:33:38.920Z,990.61
2022-11-22T09:34:38.914Z,990.61
2022-11-22T09:35:38.906Z,990.58
2022-11-22T09:36:38.905Z,990.57
2022-11-22T09:37:38.895Z,990.59
2022-11-22T09:38:38.901Z,990.62
2022-11-22T09:39:42.531Z,990.66
2022-11-22T09:40:38.889Z,990.66
2022-11-22T09:41:38.875Z,990.65
2022-11-22T09:42:38.873Z,990.66
2022-11-22T09:43:38.865Z,990.73
2022-11-22T09:44:38.976Z,990.70
2022-11-22T09:45:38.856Z,990.64
2022-11-22T09:46:38.862Z,990.63
2022-11-22T09:47:38.845Z,990.67
2022-11-22T09:48:38.842Z,990.65
2022-11-22T09:49:38.834Z,990.63
2022-11-22T09:50:38.834Z,990.60
2022-11-22T09:51:38.828Z,990.67
2022-11-22T09:52:38.824Z,990.65
2022-11-22T09:53:38.819Z,990.61
2022-11-22T09:54:38.815Z,990.66
2022-11-22T09:55:38.809Z,990.69
2022-11-22T09:56:38.802Z,990.66
2022-11-22T09:57:38.795Z,990.69
2022-11-22T09:58:38.795Z,990.65
2022-11-22T09:59:38.785Z,990.64
2022-11-22T10:00:38.959Z,990.58
2022-11-22T10:01:38.842Z,990.54
2022-11-22T10:02:58.946Z,990.56
2022-11-22T10:03:38.765Z,990.50
2022-11-22T10:04:38.763Z,990.58
2022-11-22T10:05:38.763Z,990.58
2022-11-22T10:06:38.753Z,990.56
2022-11-22T10:07:38.817Z,990.59
2022-11-22T10:08:39.095Z,990.54
2022-11-22T10:09:38.733Z,990.58
2022-11-22T10:10:38.733Z,990.56
2022-11-22T10:11:38.728Z,990.56
2022-11-22T10:12:38.723Z,990.55
2022-11-22T10:13:38.728Z,990.49
2022-11-22T10:14:38.713Z,990.47
2022-11-22T10:15:38.710Z,990.49
2022-11-22T10:16:38.822Z,990.47
2022-11-22T10:17:38.698Z,990.50
2022-11-22T10:18:38.695Z,990.39
2022-11-22T10:19:38.690Z,990.50
2022-11-22T10:20:38.688Z,990.44
2022-11-22T10:21:38.677Z,990.44
2022-11-22T10:22:38.673Z,990.41
2022-11-22T10:23:38.667Z,990.38
2022-11-22T10:24:38.665Z,990.31
2022-11-22T10:25:38.657Z,990.25
2022-11-22T10:26:38.655Z,990.30
2022-11-22T10:27:38.646Z,990.28
2022-11-22T10:28:38.644Z,990.25
2022-11-22T10:29:38.638Z,990.25
2022-11-22T10:30:38.633Z,990.23
2022-11-22T10:31:38.630Z,990.25
2022-11-22T10:32:38.742Z,990.21
2022-11-22T10:33:44.039Z,990.18
2022-11-22T10:34:38.619Z,990.17
2022-11-22T10:35:38.608Z,990.17
2022-11-22T10:36:38.605Z,990.17
2022-11-22T10:37:38.599Z,990.13
2022-11-22T10:38:38.592Z,990.14
2022-11-22T10:39:38.709Z,990.15
2022-11-22T10:40:38.588Z,990.02
2022-11-22T10:41:38.583Z,990.18
2022-11-22T10:42:38.576Z,990.09
2022-11-22T10:43:38.571Z,990.18
2022-11-22T10:44:38.568Z,990.10
2022-11-22T10:45:38.569Z,990.10
2022-11-22T10:46:38.574Z,990.07
2022-11-22T10:47:38.553Z,990.12
2022-11-22T10:48:38.655Z,990.08
2022-11-22T10:49:38.537Z,990.07
2022-11-22T10:50:38.540Z,990.07
2022-11-22T10:51:38.528Z,990.03
2022-11-22T10:52:38.529Z,990.04
2022-11-22T10:53:38.519Z,990.03
2022-11-22T10:54:38.541Z,989.98
2022-11-22T10:55:38.516Z,990.02
2022-11-22T10:56:38.505Z,990.02
2022-11-22T10:57:38.499Z,990.04
2022-11-22T10:58:38.494Z,990.01
2022-11-22T10:59:38.488Z,990.05
2022-11-22T11:00:38.485Z,990.08
2022-11-22T11:01:38.520Z,990.06
2022-11-22T11:02:38.478Z,989.97
2022-11-22T11:03:38.472Z,990.01
2022-11-22T11:04:38.603Z,989.95
2022-11-22T11:05:42.052Z,989.95
2022-11-22T11:07:04.623Z,989.98
2022-11-22T11:07:38.490Z,989.98
2022-11-22T11:09:02.523Z,989.92
2022-11-22T11:10:38.554Z,989.94
2022-11-22T11:11:38.426Z,989.91
2022-11-22T11:12:38.428Z,989.91
2022-11-22T11:13:38.418Z,989.89
2022-11-22T11:14:38.414Z,989.88
2022-11-22T11:15:38.413Z,989.85
2022-11-22T11:16:38.404Z,989.85
2022-11-22T11:17:38.398Z,989.83
2022-11-22T11:18:38.397Z,989.79
2022-11-22T11:19:38.389Z,989.76
2022-11-22T11:20:38.500Z,989.82
2022-11-22T11:21:38.388Z,989.82
2022-11-22T11:23:12.673Z,989.83
2022-11-22T11:23:38.373Z,989.82
2022-11-22T11:24:38.367Z,989.80
2022-11-22T11:25:38.358Z,989.82
2022-11-22T11:26:38.357Z,989.78
2022-11-22T11:27:38.349Z,989.82
2022-11-22T11:28:38.350Z,989.79
2022-11-22T11:29:38.530Z,989.76
2022-11-22T11:30:38.336Z,989.73
2022-11-22T11:31:38.332Z,989.73
2022-11-22T11:32:38.327Z,989.68
2022-11-22T11:33:38.418Z,989.73
2022-11-22T11:34:38.316Z,989.72
2022-11-22T11:35:38.312Z,989.73
2022-11-22T11:36:38.350Z,989.71
2022-11-22T11:37:38.306Z,989.76
2022-11-22T11:38:38.299Z,989.70
2022-11-22T11:39:43.385Z,989.71
2022-11-22T11:40:38.286Z,989.73
2022-11-22T11:41:43.243Z,989.75
2022-11-22T11:42:38.277Z,989.73
2022-11-22T11:43:38.271Z,989.74
2022-11-22T11:44:38.274Z,989.78
2022-11-22T11:45:38.262Z,989.82
2022-11-22T11:46:38.258Z,989.82
2022-11-22T11:47:38.250Z,989.73
2022-11-22T11:48:38.248Z,989.75
2022-11-22T11:49:38.243Z,989.69
2022-11-22T11:50:38.241Z,989.72
2022-11-22T11:51:38.232Z,989.70
2022-11-22T11:52:38.348Z,989.72
2022-11-22T11:53:38.226Z,989.69
2022-11-22T11:54:38.219Z,989.74
2022-11-22T11:55:38.213Z,989.72
2022-11-22T11:56:38.210Z,989.74
2022-11-22T11:57:38.201Z,989.72
2022-11-22T11:58:38.200Z,989.69
2022-11-22T11:59:38.195Z,989.68
2022-11-22T12:00:38.198Z,989.65
2022-11-22T12:01:39.098Z,989.64
2022-11-22T12:02:38.275Z,989.63
2022-11-22T12:03:38.174Z,989.54
2022-11-22T12:04:38.171Z,989.66
2022-11-22T12:05:38.172Z,989.61
2022-11-22T12:06:38.161Z,989.66
2022-11-22T12:07:38.229Z,989.67
2022-11-22T12:08:38.263Z,989.68
2022-11-22T12:09:38.144Z,989.73
2022-11-22T12:10:38.141Z,989.74
2022-11-22T12:11:38.135Z,989.73
2022-11-22T12:12:38.132Z,989.73
2022-11-22T12:13:57.616Z,989.68
2022-11-22T12:15:09.099Z,989.69
2022-11-22T12:15:38.115Z,989.69
2022-11-22T12:16:38.112Z,989.65
2022-11-22T12:17:38.105Z,989.67
2022-11-22T12:18:38.103Z,989.67
2022-11-22T12:19:38.096Z,989.70
2022-11-22T12:20:38.105Z,989.60
2022-11-22T12:21:38.095Z,989.54
2022-11-22T12:22:53.436Z,989.63
2022-11-22T12:23:38.084Z,989.69
2022-11-22T12:25:24.422Z,989.68
2022-11-22T12:25:38.344Z,989.70
2022-11-22T12:26:38.062Z,989.68
2022-11-22T12:27:38.057Z,989.73
2022-11-22T12:28:38.056Z,989.69
2022-11-22T12:29:38.046Z,989.66
2022-11-22T12:30:38.047Z,989.72
2022-11-22T12:31:38.038Z,989.65
2022-11-22T12:32:38.037Z,989.63